createdAt,value
2022-09-23T00:00:31.672Z,101746.00
2022-09-23T00:03:00.038Z,101749.00
2022-09-23T00:05:30.108Z,101741.00
2022-09-23T00:07:57.542Z,101746.00
2022-09-23T00:10:25.283Z,101741.00
2022-09-23T00:12:51.809Z,101742.00
2022-09-23T00:15:18.482Z,101738.00
2022-09-23T00:17:45.436Z,101738.00
2022-09-23T00:20:11.971Z,101739.00
2022-09-23T00:22:38.535Z,101737.00
2022-09-23T00:25:06.536Z,101735.00
2022-09-23T00:27:34.010Z,101737.00
2022-09-23T00:30:00.983Z,101739.00
2022-09-23T00:32:27.792Z,101743.00
2022-09-23T00:34:54.360Z,101742.00
2022-09-23T00:37:21.197Z,101729.00
2022-09-23T00:39:47.917Z,101730.00
2022-09-23T00:42:16.413Z,101714.00
2022-09-23T00:44:48.887Z,101716.00
2022-09-23T00:47:15.284Z,101720.00
2022-09-23T00:49:41.815Z,101714.00
2022-09-23T00:52:11.845Z,101703.00
2022-09-23T00:54:38.875Z,101709.00
2022-09-23T00:57:05.788Z,101710.00
2022-09-23T00:59:32.977Z,101710.00
2022-09-23T01:02:00.390Z,101703.00
2022-09-23T01:04:28.143Z,101713.00
2022-09-23T01:06:54.604Z,101709.00
2022-09-23T01:09:21.708Z,101710.00
2022-09-23T01:12:01.608Z,101704.00
2022-09-23T01:14:40.494Z,101699.00
2022-09-23T01:17:14.193Z,101706.00
2022-09-23T01:19:53.161Z,101697.00
2022-09-23T01:22:28.291Z,101699.00
2022-09-23T01:24:57.936Z,101697.00
2022-09-23T01:27:43.280Z,101698.00
2022-09-23T01:30:09.695Z,101687.00
2022-09-23T01:32:48.560Z,101692.00
2022-09-23T01:35:30.518Z,101694.00
2022-09-23T01:38:09.087Z,101693.00
2022-09-23T01:40:42.606Z,101690.00
2022-09-23T01:43:16.049Z,101687.00
2022-09-23T01:45:44.327Z,101680.00
2022-09-23T01:48:29.037Z,101683.00
2022-09-23T01:50:58.090Z,101679.00
2022-09-23T01:53:28.866Z,101679.00
2022-09-23T01:55:58.779Z,101676.00
2022-09-23T01:58:29.081Z,101685.00
2022-09-23T02:01:01.404Z,101676.00
2022-09-23T02:03:32.154Z,101671.00
2022-09-23T02:06:04.281Z,101679.00
2022-09-23T02:09:03.069Z,101676.00
2022-09-23T02:11:31.158Z,101674.00
2022-09-23T02:14:02.884Z,101674.00
2022-09-23T02:16:58.838Z,101672.00
2022-09-23T02:19:28.501Z,101671.00
2022-09-23T02:22:00.522Z,101676.00
2022-09-23T02:24:34.701Z,101675.00
2022-09-23T02:27:19.911Z,101666.00
2022-09-23T02:29:48.495Z,101668.00
2022-09-23T02:32:19.941Z,101660.00
2022-09-23T02:34:49.115Z,101663.00
2022-09-23T02:37:21.876Z,101653.00
2022-09-23T02:40:06.075Z,101654.00
2022-09-23T02:42:57.572Z,101649.00
2022-09-23T02:45:24.103Z,101644.00
2022-09-23T02:47:53.328Z,101640.00
2022-09-23T02:50:20.667Z,101632.00
2022-09-23T02:52:47.196Z,101640.00
2022-09-23T02:55:15.580Z,101642.00
2022-09-23T02:57:42.061Z,101639.00
2022-09-23T03:00:08.914Z,101634.00
2022-09-23T03:02:40.030Z,101631.00
2022-09-23T03:05:19.049Z,101632.00
2022-09-23T03:07:57.337Z,101615.00
2022-09-23T03:10:26.181Z,101613.00
2022-09-23T03:12:58.132Z,101609.00
2022-09-23T03:15:36.815Z,101623.00
2022-09-23T03:18:06.455Z,101623.00
2022-09-23T03:20:36.144Z,101626.00
2022-09-23T03:23:05.106Z,101617.00
2022-09-23T03:25:33.325Z,101614.00
2022-09-23T03:28:00.960Z,101607.00
2022-09-23T03:30:28.113Z,101614.00
2022-09-23T03:32:55.089Z,101616.00
2022-09-23T03:35:24.155Z,101618.00
2022-09-23T03:37:56.624Z,101614.00
2022-09-23T03:40:23.077Z,101616.00
2022-09-23T03:42:50.155Z,101605.00
2022-09-23T03:45:22.401Z,101609.00
2022-09-23T03:47:48.967Z,101608.00
2022-09-23T03:50:17.390Z,101602.00
2022-09-23T03:52:44.397Z,101607.00
2022-09-23T03:55:13.544Z,101607.00
2022-09-23T03:57:40.005Z,101618.00
2022-09-23T04:00:07.469Z,101621.00
2022-09-23T04:02:34.167Z,101620.00
2022-09-23T04:05:01.155Z,101616.00
2022-09-23T04:07:27.605Z,101616.00
2022-09-23T04:09:54.390Z,101615.00
2022-09-23T04:12:20.818Z,101623.00
2022-09-23T04:14:47.246Z,101616.00
2022-09-23T04:17:13.823Z,101621.00
2022-09-23T04:19:40.607Z,101614.00
2022-09-23T04:22:07.743Z,101612.00
2022-09-23T04:24:34.337Z,101622.00
2022-09-23T04:27:00.944Z,101612.00
2022-09-23T04:29:27.808Z,101613.00
2022-09-23T04:31:54.579Z,101621.00
2022-09-23T04:34:21.235Z,101609.00
2022-09-23T04:36:48.486Z,101603.00
2022-09-23T04:39:15.514Z,101607.00
2022-09-23T04:41:42.504Z,101609.00
2022-09-23T04:44:09.276Z,101600.00
2022-09-23T04:46:35.825Z,101602.00
2022-09-23T04:49:02.400Z,101595.00
2022-09-23T04:51:28.882Z,101598.00
2022-09-23T04:53:55.812Z,101597.00
2022-09-23T04:56:23.813Z,101588.00
2022-09-23T04:58:50.668Z,101594.00
2022-09-23T05:01:17.156Z,101596.00
2022-09-23T05:03:44.098Z,101597.00
2022-09-23T05:06:13.726Z,101589.00
2022-09-23T05:08:40.883Z,101593.00
2022-09-23T05:11:08.981Z,101593.00
2022-09-23T05:13:35.526Z,101592.00
2022-09-23T05:16:10.025Z,101591.00
2022-09-23T05:18:37.601Z,101587.00
2022-09-23T05:21:04.267Z,101584.00
2022-09-23T05:23:30.711Z,101587.00
2022-09-23T05:26:01.534Z,101593.00
2022-09-23T05:28:33.004Z,101595.00
2022-09-23T05:31:04.399Z,101591.00
2022-09-23T05:33:31.534Z,101583.00
2022-09-23T05:35:58.101Z,101584.00
2022-09-23T05:38:24.722Z,101582.00
2022-09-23T05:40:57.950Z,101586.00
2022-09-23T05:43:24.828Z,101582.00
2022-09-23T05:45:51.807Z,101584.00
2022-09-23T05:48:18.590Z,101592.00
2022-09-23T05:50:51.677Z,101597.00
2022-09-23T05:53:19.020Z,101600.00
2022-09-23T05:55:46.031Z,101591.00
2022-09-23T05:58:12.955Z,101595.00
2022-09-23T06:00:43.577Z,101595.00
2022-09-23T06:03:16.872Z,101585.00
2022-09-23T06:05:43.385Z,101586.00
2022-09-23T06:08:10.452Z,101579.00
2022-09-23T06:10:37.816Z,101575.00
2022-09-23T06:13:04.281Z,101572.00
2022-09-23T06:15:30.811Z,101571.00
2022-09-23T06:17:57.295Z,101573.00
2022-09-23T06:20:23.751Z,101568.00
2022-09-23T06:22:53.384Z,101579.00
2022-09-23T06:25:23.048Z,101578.00
2022-09-23T06:27:54.462Z,101571.00
2022-09-23T06:30:21.413Z,101574.00
2022-09-23T06:32:49.883Z,101566.00
2022-09-23T06:35:24.526Z,101564.00
2022-09-23T06:37:54.122Z,101566.00
2022-09-23T06:40:22.540Z,101570.00
2022-09-23T06:42:52.405Z,101567.00
2022-09-23T06:45:18.924Z,101565.00
2022-09-23T06:47:45.345Z,101571.00
2022-09-23T06:50:14.787Z,101569.00
2022-09-23T06:52:42.106Z,101563.00
2022-09-23T06:55:10.158Z,101570.00
2022-09-23T06:57:36.769Z,101564.00
2022-09-23T07:00:03.508Z,101565.00
2022-09-23T07:02:30.118Z,101568.00
2022-09-23T07:04:57.485Z,101570.00
2022-09-23T07:07:23.965Z,101566.00
2022-09-23T07:09:50.420Z,101570.00
2022-09-23T07:12:16.876Z,101561.00
2022-09-23T07:14:43.384Z,101562.00
2022-09-23T07:17:09.817Z,101568.00
2022-09-23T07:19:36.554Z,101565.00
2022-09-23T07:22:03.069Z,101565.00
2022-09-23T07:24:29.523Z,101564.00
2022-09-23T07:26:55.972Z,101565.00
2022-09-23T07:29:22.735Z,101568.00
2022-09-23T07:31:49.240Z,101572.00
2022-09-23T07:34:15.820Z,101567.00
2022-09-23T07:36:42.399Z,101566.00
2022-09-23T07:39:11.590Z,101565.00
2022-09-23T07:41:38.099Z,101567.00
2022-09-23T07:44:06.101Z,101572.00
2022-09-23T07:46:34.165Z,101574.00
2022-09-23T07:49:02.039Z,101576.00
2022-09-23T07:51:34.812Z,101575.00
2022-09-23T07:54:02.490Z,101575.00
2022-09-23T07:56:29.965Z,101577.00
2022-09-23T07:59:05.653Z,101582.00
2022-09-23T08:01:52.613Z,101583.00
2022-09-23T08:04:19.192Z,101585.00
2022-09-23T08:06:46.970Z,101597.00
2022-09-23T08:09:13.562Z,101591.00
2022-09-23T08:11:42.013Z,101593.00
2022-09-23T08:14:09.750Z,101594.00
2022-09-23T08:16:37.553Z,101590.00
2022-09-23T08:21:35.497Z,101590.00
2022-09-23T08:24:02.178Z,101591.00
2022-09-23T08:26:28.718Z,101584.00
2022-09-23T08:28:56.518Z,101592.00
2022-09-23T08:31:23.587Z,101591.00
2022-09-23T08:33:59.471Z,101590.00
2022-09-23T08:36:26.597Z,101592.00
2022-09-23T08:38:53.111Z,101586.00
2022-09-23T08:41:31.901Z,101589.00
2022-09-23T08:44:02.104Z,101591.00
2022-09-23T08:46:31.897Z,101600.00
2022-09-23T08:48:58.891Z,101599.00
2022-09-23T08:51:33.342Z,101596.00
2022-09-23T08:54:00.023Z,101603.00
2022-09-23T08:56:27.778Z,101597.00
2022-09-23T08:58:57.305Z,101593.00
2022-09-23T09:01:33.279Z,101598.00
2022-09-23T09:04:14.675Z,101595.00
2022-09-23T09:06:52.985Z,101592.00
2022-09-23T09:09:36.322Z,101595.00
2022-09-23T09:12:25.101Z,101588.00
2022-09-23T09:14:59.200Z,101592.00
2022-09-23T09:17:35.205Z,101598.00
2022-09-23T09:20:18.890Z,101591.00
2022-09-23T09:22:46.043Z,101592.00
2022-09-23T09:25:34.293Z,101590.00
2022-09-23T09:28:01.159Z,101587.00
2022-09-23T09:30:27.825Z,101576.00
2022-09-23T09:33:06.813Z,101582.00
2022-09-23T09:35:53.601Z,101585.00
2022-09-23T09:38:22.059Z,101584.00
2022-09-23T09:40:48.831Z,101587.00
2022-09-23T09:43:23.600Z,101593.00
2022-09-23T09:46:08.324Z,101591.00
2022-09-23T09:48:34.761Z,101588.00
2022-09-23T09:51:19.054Z,101587.00
2022-09-23T09:53:45.448Z,101588.00
2022-09-23T09:56:14.098Z,101588.00
2022-09-23T09:58:48.578Z,101574.00
2022-09-23T10:01:19.348Z,101576.00
2022-09-23T10:03:45.898Z,101569.00
2022-09-23T10:06:17.420Z,101575.00
2022-09-23T10:08:48.653Z,101579.00
2022-09-23T10:11:16.191Z,101576.00
2022-09-23T10:14:00.544Z,101575.00
2022-09-23T10:16:27.985Z,101564.00
2022-09-23T10:18:57.006Z,101562.00
2022-09-23T10:21:27.770Z,101566.00
2022-09-23T10:23:58.268Z,101565.00
2022-09-23T10:26:34.022Z,101570.00
2022-09-23T10:29:18.876Z,101576.00
2022-09-23T10:31:45.433Z,101570.00
2022-09-23T10:34:25.081Z,101566.00
2022-09-23T10:37:07.142Z,101563.00
2022-09-23T10:39:52.298Z,101562.00
2022-09-23T10:42:46.402Z,101555.00
2022-09-23T10:45:43.192Z,101558.00
2022-09-23T10:48:28.562Z,101567.00
2022-09-23T10:50:55.595Z,101558.00
2022-09-23T10:53:37.843Z,101561.00
2022-09-23T10:56:07.398Z,101554.00
2022-09-23T10:58:33.820Z,101560.00
2022-09-23T11:01:03.409Z,101560.00
2022-09-23T11:03:42.134Z,101555.00
2022-09-23T11:06:23.073Z,101556.00
2022-09-23T11:09:03.091Z,101560.00
2022-09-23T11:11:40.432Z,101555.00
2022-09-23T11:14:17.145Z,101556.00
2022-09-23T11:16:55.803Z,101554.00
2022-09-23T11:19:32.451Z,101546.00
2022-09-23T11:21:58.880Z,101546.00
2022-09-23T11:24:37.382Z,101543.00
2022-09-23T11:27:16.814Z,101545.00
2022-09-23T11:29:55.489Z,101542.00
2022-09-23T11:32:28.072Z,101538.00
2022-09-23T11:35:04.035Z,101539.00
2022-09-23T11:37:34.822Z,101539.00
2022-09-23T11:40:04.194Z,101534.00
2022-09-23T11:42:33.637Z,101529.00
2022-09-23T11:45:15.093Z,101533.00
2022-09-23T11:47:53.829Z,101528.00
2022-09-23T11:50:25.864Z,101529.00
2022-09-23T11:53:01.063Z,101520.00
2022-09-23T11:55:32.396Z,101513.00
2022-09-23T11:58:22.526Z,101525.00
2022-09-23T12:01:00.687Z,101522.00
2022-09-23T12:03:44.973Z,101518.00
2022-09-23T12:06:18.254Z,101520.00
2022-09-23T12:08:44.696Z,101522.00
2022-09-23T12:11:14.130Z,101525.00
2022-09-23T12:13:49.013Z,101516.00
2022-09-23T12:16:18.552Z,101517.00
2022-09-23T12:18:54.196Z,101519.00
2022-09-23T12:21:50.331Z,101517.00
2022-09-23T12:24:19.998Z,101517.00
2022-09-23T12:26:56.805Z,101511.00
2022-09-23T12:31:53.803Z,101511.00
2022-09-23T12:34:33.379Z,101513.00
2022-09-23T12:37:04.110Z,101500.00
2022-09-23T12:39:38.864Z,101498.00
2022-09-23T12:42:08.439Z,101490.00
2022-09-23T12:44:40.539Z,101492.00
2022-09-23T12:47:24.890Z,101485.00
2022-09-23T12:49:56.500Z,101494.00
2022-09-23T12:52:31.594Z,101491.00
2022-09-23T12:55:18.323Z,101491.00
2022-09-23T12:57:48.208Z,101493.00
2022-09-23T13:00:24.900Z,101484.00
2022-09-23T13:03:15.102Z,101489.00
2022-09-23T13:06:10.193Z,101491.00
2022-09-23T13:08:40.887Z,101494.00
2022-09-23T13:11:13.492Z,101484.00
2022-09-23T13:13:44.246Z,101485.00
2022-09-23T13:16:13.007Z,101481.00
2022-09-23T13:18:54.860Z,101475.00
2022-09-23T13:21:40.015Z,101481.00
2022-09-23T13:24:12.572Z,101479.00
2022-09-23T13:26:50.345Z,101475.00
2022-09-23T13:29:22.286Z,101479.00
2022-09-23T13:31:49.068Z,101477.00
2022-09-23T13:34:18.618Z,101477.00
2022-09-23T13:36:48.739Z,101472.00
2022-09-23T13:39:16.619Z,101477.00
2022-09-23T13:41:44.189Z,101470.00
2022-09-23T13:44:19.748Z,101469.00
2022-09-23T13:46:54.408Z,101462.00
2022-09-23T13:49:22.274Z,101465.00
2022-09-23T13:51:48.745Z,101467.00
2022-09-23T13:54:41.474Z,101466.00
2022-09-23T13:57:24.121Z,101466.00
2022-09-23T13:59:50.578Z,101464.00
2022-09-23T14:02:17.255Z,101456.00
2022-09-23T14:04:43.853Z,101454.00
2022-09-23T14:07:11.810Z,101450.00
2022-09-23T14:09:41.221Z,101450.00
2022-09-23T14:12:10.004Z,101453.00
2022-09-23T14:14:40.281Z,101450.00
2022-09-23T14:17:07.504Z,101442.00
2022-09-23T14:19:35.346Z,101440.00
2022-09-23T14:22:01.819Z,101447.00
2022-09-23T14:24:35.659Z,101442.00
2022-09-23T14:27:08.303Z,101443.00
2022-09-23T14:29:39.496Z,101446.00
2022-09-23T14:32:33.019Z,101444.00
2022-09-23T14:34:59.513Z,101436.00
2022-09-23T14:38:07.405Z,101439.00
2022-09-23T14:40:51.058Z,101440.00
2022-09-23T14:43:23.174Z,101444.00
2022-09-23T14:45:52.030Z,101441.00
2022-09-23T14:48:26.661Z,101440.00
2022-09-23T14:50:57.759Z,101438.00
2022-09-23T14:53:34.643Z,101430.00
2022-09-23T14:56:07.200Z,101429.00
2022-09-23T14:58:49.618Z,101426.00
2022-09-23T15:01:26.183Z,101428.00
2022-09-23T15:03:53.133Z,101423.00
2022-09-23T15:06:21.381Z,101426.00
2022-09-23T15:08:48.670Z,101426.00
2022-09-23T15:11:15.346Z,101424.00
2022-09-23T15:13:44.582Z,101416.00
2022-09-23T15:16:12.831Z,101422.00
2022-09-23T15:18:41.601Z,101425.00
2022-09-23T15:21:07.998Z,101434.00
2022-09-23T15:23:44.890Z,101429.00
2022-09-23T15:26:14.002Z,101429.00
2022-09-23T15:28:40.861Z,101432.00
2022-09-23T15:31:09.269Z,101431.00
2022-09-23T15:33:36.198Z,101428.00
2022-09-23T15:36:03.307Z,101433.00
2022-09-23T15:38:29.746Z,101431.00
2022-09-23T15:40:56.361Z,101429.00
2022-09-23T15:43:24.624Z,101417.00
2022-09-23T15:45:53.302Z,101426.00
2022-09-23T15:48:24.263Z,101418.00
2022-09-23T15:50:51.318Z,101418.00
2022-09-23T15:53:20.444Z,101416.00
2022-09-23T15:55:47.340Z,101417.00
2022-09-23T15:58:13.888Z,101418.00
2022-09-23T16:00:40.404Z,101418.00
2022-09-23T16:03:07.037Z,101419.00
2022-09-23T16:05:38.657Z,101413.00
2022-09-23T16:08:08.950Z,101411.00
2022-09-23T16:10:36.249Z,101410.00
2022-09-23T16:13:04.271Z,101412.00
2022-09-23T16:15:31.615Z,101412.00
2022-09-23T16:17:58.731Z,101415.00
2022-09-23T16:20:26.420Z,101416.00
2022-09-23T16:23:00.686Z,101410.00
2022-09-23T16:25:28.451Z,101406.00
2022-09-23T16:27:58.133Z,101412.00
2022-09-23T16:30:25.689Z,101400.00
2022-09-23T16:32:52.189Z,101394.00
2022-09-23T16:35:23.150Z,101399.00
2022-09-23T16:37:50.797Z,101401.00
2022-09-23T16:40:21.301Z,101408.00
2022-09-23T16:42:48.625Z,101405.00
2022-09-23T16:45:17.042Z,101399.00
2022-09-23T16:47:46.994Z,101402.00
2022-09-23T16:50:14.611Z,101399.00
2022-09-23T16:52:41.807Z,101405.00
2022-09-23T16:55:08.776Z,101398.00
2022-09-23T16:57:38.813Z,101396.00
2022-09-23T17:00:30.925Z,101397.00
2022-09-23T17:03:16.273Z,101397.00
2022-09-23T17:05:46.593Z,101398.00
2022-09-23T17:08:13.963Z,101395.00
2022-09-23T17:10:41.302Z,101398.00
2022-09-23T17:13:08.226Z,101397.00
2022-09-23T17:15:38.462Z,101405.00
2022-09-23T17:18:08.649Z,101405.00
2022-09-23T17:20:35.112Z,101399.00
2022-09-23T17:23:04.755Z,101397.00
2022-09-23T17:25:31.737Z,101401.00
2022-09-23T17:27:58.522Z,101404.00
2022-09-23T17:30:27.391Z,101395.00
2022-09-23T17:32:53.828Z,101400.00
2022-09-23T17:35:20.719Z,101402.00
2022-09-23T17:37:47.626Z,101401.00
2022-09-23T17:40:17.664Z,101393.00
2022-09-23T17:42:44.727Z,101398.00
2022-09-23T17:45:14.414Z,101399.00
2022-09-23T17:47:41.840Z,101399.00
2022-09-23T17:50:08.673Z,101402.00
2022-09-23T17:52:35.194Z,101395.00
2022-09-23T17:55:01.888Z,101400.00
2022-09-23T17:57:28.392Z,101395.00
2022-09-23T17:59:56.147Z,101400.00
2022-09-23T18:02:22.871Z,101396.00
2022-09-23T18:04:49.730Z,101394.00
2022-09-23T18:07:16.384Z,101395.00
2022-09-23T18:09:42.883Z,101390.00
2022-09-23T18:12:09.354Z,101391.00
2022-09-23T18:14:35.912Z,101380.00
2022-09-23T18:17:02.393Z,101385.00
2022-09-23T18:19:28.864Z,101394.00
2022-09-23T18:21:58.737Z,101392.00
2022-09-23T18:24:32.375Z,101396.00
2022-09-23T18:27:00.029Z,101391.00
2022-09-23T18:29:26.998Z,101395.00
2022-09-23T18:31:53.578Z,101393.00
2022-09-23T18:34:20.451Z,101393.00
2022-09-23T18:36:47.237Z,101402.00
2022-09-23T18:39:13.724Z,101394.00
2022-09-23T18:41:41.021Z,101394.00
2022-09-23T18:44:07.573Z,101393.00
2022-09-23T18:46:34.222Z,101391.00
2022-09-23T18:49:19.289Z,101393.00
2022-09-23T18:51:54.552Z,101390.00
2022-09-23T18:54:21.600Z,101399.00
2022-09-23T18:56:49.355Z,101396.00
2022-09-23T18:59:17.819Z,101395.00
2022-09-23T19:01:45.714Z,101394.00
2022-09-23T19:04:13.784Z,101398.00
2022-09-23T19:06:40.379Z,101395.00
2022-09-23T19:09:07.172Z,101397.00
2022-09-23T19:11:36.261Z,101391.00
2022-09-23T19:14:04.993Z,101388.00
2022-09-23T19:16:31.945Z,101384.00
2022-09-23T19:19:02.174Z,101378.00
2022-09-23T19:21:29.524Z,101383.00
2022-09-23T19:24:03.641Z,101391.00
2022-09-23T19:26:32.290Z,101388.00
2022-09-23T19:28:59.444Z,101391.00
2022-09-23T19:31:41.912Z,101390.00
2022-09-23T19:34:12.840Z,101388.00
2022-09-23T19:36:40.514Z,101385.00
2022-09-23T19:39:08.739Z,101383.00
2022-09-23T19:41:35.537Z,101374.00
2022-09-23T19:44:07.572Z,101372.00
2022-09-23T19:46:36.720Z,101368.00
2022-09-23T19:49:03.921Z,101369.00
2022-09-23T19:51:30.989Z,101373.00
2022-09-23T19:53:57.576Z,101373.00
2022-09-23T19:56:24.028Z,101364.00
2022-09-23T19:58:52.362Z,101366.00
2022-09-23T20:01:19.328Z,101361.00
2022-09-23T20:03:47.117Z,101362.00
2022-09-23T20:06:13.984Z,101355.00
2022-09-23T20:08:40.686Z,101357.00
2022-09-23T20:11:10.284Z,101349.00
2022-09-23T20:13:37.757Z,101360.00
2022-09-23T20:16:08.909Z,101358.00
2022-09-23T20:18:36.319Z,101348.00
2022-09-23T20:21:03.258Z,101357.00
2022-09-23T20:23:30.225Z,101342.00
2022-09-23T20:26:15.704Z,101343.00
2022-09-23T20:28:42.225Z,101341.00
2022-09-23T20:31:08.803Z,101341.00
2022-09-23T20:33:35.479Z,101347.00
2022-09-23T20:36:02.096Z,101335.00
2022-09-23T20:38:28.557Z,101338.00
2022-09-23T20:40:56.119Z,101337.00
2022-09-23T20:43:22.761Z,101332.00
2022-09-23T20:45:50.012Z,101332.00
2022-09-23T20:48:16.479Z,101329.00
2022-09-23T20:50:43.122Z,101327.00
2022-09-23T20:53:09.534Z,101326.00
2022-09-23T20:55:36.022Z,101321.00
2022-09-23T20:58:04.507Z,101320.00
2022-09-23T21:00:31.018Z,101320.00
2022-09-23T21:02:57.529Z,101310.00
2022-09-23T21:05:24.689Z,101320.00
2022-09-23T21:07:51.179Z,101315.00
2022-09-23T21:10:17.642Z,101305.00
2022-09-23T21:12:45.998Z,101300.00
2022-09-23T21:15:13.488Z,101302.00
2022-09-23T21:17:40.272Z,101307.00
2022-09-23T21:20:07.073Z,101307.00
2022-09-23T21:22:33.626Z,101310.00
2022-09-23T21:27:51.234Z,101314.00
2022-09-23T21:30:17.841Z,101309.00
2022-09-23T21:32:44.552Z,101308.00
2022-09-23T21:35:11.018Z,101311.00
2022-09-23T21:37:37.452Z,101316.00
2022-09-23T21:40:22.904Z,101308.00
2022-09-23T21:42:49.399Z,101306.00
2022-09-23T21:45:15.859Z,101305.00
2022-09-23T21:47:42.249Z,101300.00
2022-09-23T21:50:08.899Z,101293.00
2022-09-23T21:52:35.391Z,101295.00
2022-09-23T21:55:01.833Z,101291.00
2022-09-23T21:57:29.848Z,101291.00
2022-09-23T21:59:56.327Z,101289.00
2022-09-23T22:02:23.565Z,101298.00
2022-09-23T22:04:50.038Z,101287.00
2022-09-23T22:07:16.511Z,101289.00
2022-09-23T22:09:46.891Z,101296.00
2022-09-23T22:12:13.349Z,101294.00
2022-09-23T22:14:39.934Z,101293.00
2022-09-23T22:17:10.886Z,101299.00
2022-09-23T22:19:44.303Z,101289.00
2022-09-23T22:22:13.680Z,101298.00
2022-09-23T22:24:40.657Z,101288.00
2022-09-23T22:27:07.479Z,101283.00
2022-09-23T22:29:52.597Z,101293.00
2022-09-23T22:32:55.277Z,101285.00
2022-09-23T22:35:21.942Z,101289.00
2022-09-23T22:37:48.444Z,101289.00
2022-09-23T22:40:15.425Z,101289.00
2022-09-23T22:42:42.414Z,101293.00
2022-09-23T22:45:09.688Z,101295.00
2022-09-23T22:47:37.835Z,101289.00
2022-09-23T22:50:05.209Z,101284.00
2022-09-23T22:52:32.240Z,101277.00
2022-09-23T22:54:58.767Z,101279.00
2022-09-23T22:57:25.226Z,101285.00
2022-09-23T22:59:51.911Z,101281.00
2022-09-23T23:02:19.253Z,101271.00
2022-09-23T23:04:48.892Z,101280.00
2022-09-23T23:07:16.440Z,101279.00
2022-09-23T23:09:42.910Z,101270.00
2022-09-23T23:12:09.358Z,101270.00
2022-09-23T23:14:36.224Z,101266.00
2022-09-23T23:17:07.161Z,101273.00
2022-09-23T23:19:34.788Z,101271.00
2022-09-23T23:22:01.292Z,101268.00
2022-09-23T23:24:27.725Z,101265.00
2022-09-23T23:26:54.170Z,101270.00
2022-09-23T23:29:21.482Z,101267.00
2022-09-23T23:31:48.195Z,101263.00
2022-09-23T23:34:16.294Z,101264.00
2022-09-23T23:36:43.661Z,101260.00
2022-09-23T23:39:10.651Z,101272.00
2022-09-23T23:41:39.231Z,101266.00
2022-09-23T23:44:06.289Z,101264.00
2022-09-23T23:46:32.948Z,101262.00
2022-09-23T23:49:00.102Z,101263.00
2022-09-23T23:51:27.034Z,101261.00
2022-09-23T23:53:54.041Z,101253.00
2022-09-23T23:56:21.524Z,101260.00
2022-09-23T23:58:48.015Z,101251.00
